Time;durP1;ratioP1;P1;durP2;ratioP2;P2;SDS_P1;SDS_P2;PMS_P1;PMS_P2;Temp;Humidity;BMP_temperature;BMP_pressure;BME280_temperature;BME280_humidity;BME280_pressure;Samples;Min_cycle;Max_cycle;Signal;HPM_P1;HPM_P2
2022/09/25 00:01:33;;;;;;;24.83;10.60;;;;;;;;;;5114009;28;20077;-71
2022/09/25 00:04:01;;;;;;;14.98;9.70;;;;;;;;;;5114089;28;20093;-71
2022/09/25 00:06:29;;;;;;;17.48;9.82;;;;;;;;;;5113869;28;20134;-71
2022/09/25 00:08:58;;;;;;;18.05;9.07;;;;;;;;;;5112724;28;20046;-71
2022/09/25 00:11:26;;;;;;;14.23;8.77;;;;;;;;;;5113758;28;20485;-71
2022/09/25 00:13:55;;;;;;;13.60;9.23;;;;;;;;;;5113846;28;20039;-71
2022/09/25 00:16:23;;;;;;;14.95;9.05;;;;;;;;;;5114211;28;20040;-71
2022/09/25 00:21:37;;;;;;;15.98;8.88;;;;;;;;;;5113602;28;20043;-71
2022/09/25 00:24:06;;;;;;;14.35;9.95;;;;;;;;;;5113803;28;20131;-72
2022/09/25 00:26:35;;;;;;;13.07;8.25;;;;;;;;;;5113627;28;20408;-71
2022/09/25 00:29:03;;;;;;;14.57;8.43;;;;;;;;;;5113519;28;20047;-71
2022/09/25 00:31:31;;;;;;;13.95;8.77;;;;;;;;;;5113486;28;20054;-71
2022/09/25 00:34:00;;;;;;;15.98;9.27;;;;;;;;;;5112100;28;20667;-71
2022/09/25 00:36:28;;;;;;;15.80;9.27;;;;;;;;;;5113334;28;20481;-71
2022/09/25 00:38:56;;;;;;;13.30;9.00;;;;;;;;;;5113324;28;20058;-71
2022/09/25 00:41:25;;;;;;;16.10;9.30;;;;;;;;;;5113406;28;20075;-71
2022/09/25 00:43:56;;;;;;;18.20;9.07;;;;;;;;;;5113323;28;20370;-71
2022/09/25 00:46:27;;;;;;;14.40;8.88;;;;;;;;;;5113151;28;20370;-71
2022/09/25 00:48:58;;;;;;;14.85;9.43;;;;;;;;;;5112705;28;20369;-71
2022/09/25 00:51:28;;;;;;;15.45;9.27;;;;;;;;;;5112047;28;20040;-71
2022/09/25 00:54:00;;;;;;;14.00;8.73;;;;;;;;;;5112794;28;20051;-71
2022/09/25 00:56:29;;;;;;;19.40;10.15;;;;;;;;;;5113125;28;20046;-70
2022/09/25 00:58:57;;;;;;;15.95;9.88;;;;;;;;;;5113227;28;20485;-71
2022/09/25 01:01:24;;;;;;;14.02;10.02;;;;;;;;;;5113130;28;20070;-71
2022/09/25 01:03:54;;;;;;;16.33;9.32;;;;;;;;;;5113022;28;20126;-71
2022/09/25 01:06:22;;;;;;;13.55;9.32;;;;;;;;;;5113152;28;20043;-70
2022/09/25 01:08:50;;;;;;;15.77;10.52;;;;;;;;;;5112926;28;20048;-71
2022/09/25 01:11:17;;;;;;;13.65;9.75;;;;;;;;;;5112995;28;20036;-70
2022/09/25 01:13:45;;;;;;;16.77;10.40;;;;;;;;;;5112917;28;20549;-70
2022/09/25 01:16:20;;;;;;;18.98;13.50;;;;;;;;;;5112909;28;20042;-70
2022/09/25 01:19:05;;;;;;;15.77;10.52;;;;;;;;;;5112821;28;20040;-70
2022/09/25 01:21:54;;;;;;;14.32;9.30;;;;;;;;;;5113121;28;20042;-71
2022/09/25 01:24:21;;;;;;;16.38;11.20;;;;;;;;;;5112860;28;20044;-70
2022/09/25 01:27:06;;;;;;;27.55;15.23;;;;;;;;;;5112877;28;20396;-70
2022/09/25 01:29:34;;;;;;;20.50;11.68;;;;;;;;;;5112726;28;20047;-71
2022/09/25 01:32:05;;;;;;;17.88;12.07;;;;;;;;;;5112853;28;20046;-71
2022/09/25 01:34:39;;;;;;;18.90;11.98;;;;;;;;;;5112767;28;20050;-71
2022/09/25 01:37:19;;;;;;;24.40;13.50;;;;;;;;;;5112861;28;20039;-70
2022/09/25 01:39:51;;;;;;;18.63;10.52;;;;;;;;;;5112710;28;20035;-71
2022/09/25 01:42:21;;;;;;;16.00;10.10;;;;;;;;;;5112706;28;20040;-71
2022/09/25 01:44:55;;;;;;;17.58;12.15;;;;;;;;;;5112842;28;20396;-71
2022/09/25 01:47:30;;;;;;;22.23;13.35;;;;;;;;;;5112771;28;20622;-71
2022/09/25 01:50:02;;;;;;;15.95;9.63;;;;;;;;;;5112570;28;20404;-70
2022/09/25 01:52:34;;;;;;;18.42;11.52;;;;;;;;;;5112850;28;20085;-71
2022/09/25 01:55:12;;;;;;;12.23;8.73;;;;;;;;;;5112662;28;20065;-71
2022/09/25 01:57:50;;;;;;;16.92;11.98;;;;;;;;;;5112791;28;20044;-71
2022/09/25 02:00:22;;;;;;;34.22;23.92;;;;;;;;;;5114509;28;20122;-71
2022/09/25 02:02:54;;;;;;;15.57;10.35;;;;;;;;;;5116386;28;20070;-71
2022/09/25 02:05:22;;;;;;;24.63;16.75;;;;;;;;;;5115779;28;20493;-71
2022/09/25 02:07:53;;;;;;;28.38;19.92;;;;;;;;;;5116443;28;20393;-71
2022/09/25 02:10:27;;;;;;;28.60;19.63;;;;;;;;;;5116247;27;20039;-71
2022/09/25 02:12:57;;;;;;;29.00;21.33;;;;;;;;;;5116274;28;20565;-71
2022/09/25 02:15:29;;;;;;;23.13;16.17;;;;;;;;;;5116134;28;20048;-71
2022/09/25 02:21:18;;;;;;;24.55;17.35;;;;;;;;;;5116255;28;20458;-71
2022/09/25 02:24:07;;;;;;;20.63;13.50;;;;;;;;;;5072156;28;20055;-71
2022/09/25 02:26:36;;;;;;;26.33;17.00;;;;;;;;;;5116079;28;20480;-71
2022/09/25 02:29:04;;;;;;;20.95;15.27;;;;;;;;;;5114552;28;20040;-71
2022/09/25 02:31:40;;;;;;;16.27;10.95;;;;;;;;;;5115736;28;20105;-71
2022/09/25 02:34:07;;;;;;;17.83;13.23;;;;;;;;;;5115679;28;20078;-72
2022/09/25 02:36:42;;;;;;;23.83;16.60;;;;;;;;;;5115681;28;20581;-71
2022/09/25 02:39:10;;;;;;;23.65;17.60;;;;;;;;;;5116060;28;20043;-71
2022/09/25 02:41:51;;;;;;;18.55;12.23;;;;;;;;;;5115652;28;20047;-71
2022/09/25 02:44:18;;;;;;;20.23;14.57;;;;;;;;;;5115710;28;20054;-71
2022/09/25 02:46:45;;;;;;;31.30;17.25;;;;;;;;;;5115816;28;20036;-71
2022/09/25 02:49:21;;;;;;;32.55;16.50;;;;;;;;;;5115361;28;20550;-71
2022/09/25 02:51:56;;;;;;;54.67;20.30;;;;;;;;;;5115623;28;20382;-71
2022/09/25 02:54:23;;;;;;;46.25;20.50;;;;;;;;;;5114975;28;20110;-71
2022/09/25 02:57:01;;;;;;;53.08;28.20;;;;;;;;;;5115293;28;20114;-71
2022/09/25 02:59:34;;;;;;;27.00;16.05;;;;;;;;;;5114180;28;20050;-71
2022/09/25 03:02:02;;;;;;;18.77;10.45;;;;;;;;;;5113947;28;20047;-71
2022/09/25 03:04:33;;;;;;;32.38;19.83;;;;;;;;;;5115455;28;20088;-71
2022/09/25 03:07:01;;;;;;;16.77;9.18;;;;;;;;;;5115225;28;20039;-71
2022/09/25 03:09:31;;;;;;;17.85;10.63;;;;;;;;;;5114987;28;20126;-71
2022/09/25 03:11:58;;;;;;;44.88;27.75;;;;;;;;;;5114735;28;20043;-71
2022/09/25 03:14:27;;;;;;;37.78;25.50;;;;;;;;;;5115033;28;20044;-71
2022/09/25 03:16:56;;;;;;;56.75;37.30;;;;;;;;;;5114845;28;20119;-71
2022/09/25 03:19:26;;;;;;;45.67;31.10;;;;;;;;;;5114917;28;20055;-71
2022/09/25 03:21:54;;;;;;;33.60;23.83;;;;;;;;;;5113622;28;20046;-71
2022/09/25 03:24:21;;;;;;;36.08;25.35;;;;;;;;;;5114768;28;20047;-71
2022/09/25 03:26:49;;;;;;;22.92;15.82;;;;;;;;;;5113259;28;20055;-71
2022/09/25 03:29:16;;;;;;;25.23;16.92;;;;;;;;;;5113362;28;20067;-71
2022/09/25 03:31:44;;;;;;;20.30;14.27;;;;;;;;;;5114605;28;20374;-73
2022/09/25 03:34:12;;;;;;;25.48;17.42;;;;;;;;;;5114825;28;20043;-71
2022/09/25 03:36:39;;;;;;;21.85;13.40;;;;;;;;;;5114640;28;20508;-70
2022/09/25 03:39:09;;;;;;;19.85;12.85;;;;;;;;;;5116438;28;20036;-71
2022/09/25 03:41:37;;;;;;;18.63;13.65;;;;;;;;;;5119912;28;20512;-71
2022/09/25 03:44:04;;;;;;;16.90;13.30;;;;;;;;;;5116739;28;20119;-70
2022/09/25 03:46:33;;;;;;;22.20;13.98;;;;;;;;;;5114621;28;20382;-70
2022/09/25 03:49:00;;;;;;;18.92;12.40;;;;;;;;;;5113011;28;20036;-71
2022/09/25 03:51:29;;;;;;;21.45;14.65;;;;;;;;;;5114232;28;20046;-71
2022/09/25 03:53:57;;;;;;;16.75;12.02;;;;;;;;;;5114222;28;20075;-71
2022/09/25 03:56:26;;;;;;;18.52;12.65;;;;;;;;;;5114097;28;20108;-70
2022/09/25 03:58:54;;;;;;;17.02;12.48;;;;;;;;;;5112936;28;20063;-70
2022/09/25 04:01:22;;;;;;;18.40;11.57;;;;;;;;;;5114028;28;20114;-71
2022/09/25 04:03:50;;;;;;;15.82;10.05;;;;;;;;;;5114007;28;20035;-70
2022/09/25 04:06:20;;;;;;;14.73;10.95;;;;;;;;;;5113945;28;20064;-70
2022/09/25 04:08:48;;;;;;;14.00;10.52;;;;;;;;;;5113703;28;20547;-70
2022/09/25 04:11:17;;;;;;;18.55;12.85;;;;;;;;;;5112597;28;20067;-70
2022/09/25 04:13:44;;;;;;;18.02;12.32;;;;;;;;;;5112853;28;20066;-71
2022/09/25 04:16:12;;;;;;;17.17;11.82;;;;;;;;;;5113834;28;20032;-70
2022/09/25 04:18:41;;;;;;;15.60;10.70;;;;;;;;;;5113730;28;20550;-70
2022/09/25 04:21:10;;;;;;;17.65;11.32;;;;;;;;;;5113505;28;20044;-70
2022/09/25 04:23:38;;;;;;;21.33;12.30;;;;;;;;;;5112615;28;20036;-70
2022/09/25 04:26:06;;;;;;;17.30;12.88;;;;;;;;;;5113622;28;20050;-71
2022/09/25 04:28:34;;;;;;;17.90;11.48;;;;;;;;;;5112334;28;20036;-71
2022/09/25 04:31:02;;;;;;;14.25;9.35;;;;;;;;;;5113507;28;20051;-71
2022/09/25 04:33:48;;;;;;;15.05;10.27;;;;;;;;;;5113540;28;20036;-71
2022/09/25 04:36:15;;;;;;;;;;;;;;;;;;5113800;28;20072;-71
2022/09/25 04:38:43;;;;;;;17.95;11.15;;;;;;;;;;5113531;28;20403;-71
2022/09/25 04:41:10;;;;;;;19.27;11.85;;;;;;;;;;5113378;28;20047;-72
2022/09/25 04:43:42;;;;;;;22.50;13.13;;;;;;;;;;5113322;28;20089;-72
2022/09/25 04:46:10;;;;;;;16.02;11.75;;;;;;;;;;5113288;28;20396;-71
2022/09/25 04:48:46;;;;;;;16.30;10.18;;;;;;;;;;5113121;28;20435;-71
2022/09/25 04:51:13;;;;;;;18.70;9.77;;;;;;;;;;5111934;28;20054;-72
2022/09/25 04:53:41;;;;;;;13.38;9.35;;;;;;;;;;5111847;28;20046;-72
2022/09/25 04:56:10;;;;;;;14.07;8.63;;;;;;;;;;5113412;28;20443;-71
2022/09/25 04:58:46;;;;;;;14.52;9.20;;;;;;;;;;5113219;28;20058;-71
2022/09/25 05:01:14;;;;;;;18.80;9.23;;;;;;;;;;5113141;28;20058;-71
2022/09/25 05:03:42;;;;;;;14.40;9.07;;;;;;;;;;5113107;28;20047;-71
2022/09/25 05:06:09;;;;;;;15.75;9.82;;;;;;;;;;5104819;28;20048;-72
2022/09/25 05:08:37;;;;;;;14.57;10.18;;;;;;;;;;5102866;28;20118;-72
2022/09/25 05:11:04;;;;;;;38.95;21.40;;;;;;;;;;5101653;28;20114;-72
2022/09/25 05:13:32;;;;;;;33.85;22.40;;;;;;;;;;5092814;28;20051;-71
2022/09/25 05:15:59;;;;;;;37.47;22.98;;;;;;;;;;5092730;28;20399;-71
2022/09/25 05:18:27;;;;;;;17.35;8.70;;;;;;;;;;5091289;28;20457;-71
2022/09/25 05:20:55;;;;;;;13.55;8.98;;;;;;;;;;5092586;28;20497;-68
2022/09/25 05:23:23;;;;;;;86.88;57.88;;;;;;;;;;5092345;28;20032;-69
2022/09/25 05:25:51;;;;;;;27.45;18.70;;;;;;;;;;5092450;28;20124;-68
2022/09/25 05:28:19;;;;;;;13.30;9.20;;;;;;;;;;5092391;28;20482;-68
2022/09/25 05:30:46;;;;;;;17.83;9.95;;;;;;;;;;5092420;28;20090;-67
2022/09/25 05:33:13;;;;;;;16.45;10.90;;;;;;;;;;5092351;28;20036;-68
2022/09/25 05:35:41;;;;;;;22.10;13.88;;;;;;;;;;5096547;28;20050;-68
2022/09/25 05:38:08;;;;;;;14.73;9.90;;;;;;;;;;5094729;28;20085;-68
2022/09/25 05:40:38;;;;;;;15.98;10.45;;;;;;;;;;5093416;28;20047;-69
2022/09/25 05:43:06;;;;;;;23.27;14.88;;;;;;;;;;5095827;28;20078;-68
2022/09/25 05:45:34;;;;;;;18.70;10.30;;;;;;;;;;5096047;28;20068;-68
2022/09/25 05:48:03;;;;;;;15.35;9.95;;;;;;;;;;5096174;28;20064;-68
2022/09/25 05:50:33;;;;;;;14.90;9.68;;;;;;;;;;5094817;28;20040;-68
2022/09/25 05:53:02;;;;;;;16.27;11.18;;;;;;;;;;5096044;28;20032;-69
2022/09/25 05:55:30;;;;;;;14.25;10.50;;;;;;;;;;5094368;28;20080;-69
2022/09/25 05:58:01;;;;;;;15.23;9.93;;;;;;;;;;5096033;28;20462;-69
2022/09/25 06:00:31;;;;;;;17.50;11.88;;;;;;;;;;5095363;28;20036;-69
2022/09/25 06:03:00;;;;;;;14.65;9.80;;;;;;;;;;5095550;28;20044;-69
2022/09/25 06:05:28;;;;;;;13.10;9.52;;;;;;;;;;5095580;28;20071;-69
2022/09/25 06:07:55;;;;;;;14.00;9.20;;;;;;;;;;5094421;28;20502;-69
2022/09/25 06:10:24;;;;;;;13.90;8.95;;;;;;;;;;5095665;28;20068;-69
2022/09/25 06:12:57;;;;;;;16.50;9.77;;;;;;;;;;5095670;28;20048;-70
2022/09/25 06:15:28;;;;;;;17.10;10.52;;;;;;;;;;5101008;28;20694;-70
2022/09/25 06:17:56;;;;;;;12.88;9.43;;;;;;;;;;5101714;28;20119;-72
2022/09/25 06:20:24;;;;;;;12.40;9.30;;;;;;;;;;5095726;28;20127;-72
2022/09/25 06:22:55;;;;;;;12.25;8.68;;;;;;;;;;5095226;28;20048;-70
2022/09/25 06:25:26;;;;;;;12.18;8.95;;;;;;;;;;5095509;28;20494;-71
2022/09/25 06:27:59;;;;;;;15.48;9.70;;;;;;;;;;5095409;28;20086;-70
2022/09/25 06:30:33;;;;;;;15.50;12.07;;;;;;;;;;5095428;28;20047;-69
2022/09/25 06:33:00;;;;;;;14.70;11.18;;;;;;;;;;5095551;28;20405;-70
2022/09/25 06:35:28;;;;;;;21.88;15.88;;;;;;;;;;5095348;28;20493;-69
2022/09/25 06:37:59;;;;;;;15.30;9.27;;;;;;;;;;5095275;28;20374;-70
2022/09/25 06:40:27;;;;;;;21.55;10.82;;;;;;;;;;5095318;28;20044;-71
2022/09/25 06:42:56;;;;;;;14.95;9.20;;;;;;;;;;5095073;28;20118;-69
2022/09/25 06:45:25;;;;;;;17.10;9.38;;;;;;;;;;5094333;28;20040;-70
2022/09/25 06:47:56;;;;;;;13.77;8.43;;;;;;;;;;5095351;28;20493;-70
2022/09/25 06:50:30;;;;;;;12.07;10.00;;;;;;;;;;5093974;28;20032;-72
2022/09/25 06:53:01;;;;;;;13.83;9.43;;;;;;;;;;5095093;28;20085;-71
2022/09/25 06:55:33;;;;;;;15.55;9.00;;;;;;;;;;5094715;28;20078;-71
2022/09/25 06:58:01;;;;;;;10.25;7.57;;;;;;;;;;5094982;28;20059;-71
2022/09/25 07:00:29;;;;;;;17.25;9.98;;;;;;;;;;5094791;28;20051;-70
2022/09/25 07:05:47;;;;;;;14.52;9.40;;;;;;;;;;5100329;28;20032;-70
2022/09/25 07:08:15;;;;;;;13.27;8.77;;;;;;;;;;5104176;28;20039;-70
2022/09/25 07:10:49;;;;;;;9.23;7.25;;;;;;;;;;5105244;28;20477;-70
2022/09/25 07:13:23;;;;;;;9.50;7.20;;;;;;;;;;5104831;28;20046;-65
2022/09/25 07:15:54;;;;;;;17.77;12.90;;;;;;;;;;5101885;28;20040;-65
2022/09/25 07:18:23;;;;;;;17.35;11.52;;;;;;;;;;5103029;28;20477;-68
2022/09/25 07:20:51;;;;;;;8.68;7.35;;;;;;;;;;5104775;28;20067;-67
2022/09/25 07:23:19;;;;;;;13.68;8.57;;;;;;;;;;5102387;28;20039;-67
2022/09/25 07:25:47;;;;;;;10.48;6.78;;;;;;;;;;5073928;28;20059;-67
2022/09/25 07:28:14;;;;;;;12.68;7.15;;;;;;;;;;5074031;28;20041;-68
2022/09/25 07:30:42;;;;;;;9.95;7.57;;;;;;;;;;5073953;28;20115;-68
2022/09/25 07:33:11;;;;;;;12.40;6.88;;;;;;;;;;5074067;28;20040;-69
2022/09/25 07:35:38;;;;;;;10.93;5.95;;;;;;;;;;5074100;28;20033;-68
2022/09/25 07:38:06;;;;;;;19.80;9.05;;;;;;;;;;5073702;28;20431;-68
2022/09/25 07:40:34;;;;;;;11.43;6.53;;;;;;;;;;5073748;28;20036;-68
2022/09/25 07:43:02;;;;;;;8.57;5.95;;;;;;;;;;5073859;28;20463;-68
2022/09/25 07:45:29;;;;;;;8.82;6.00;;;;;;;;;;5073702;28;20105;-68
2022/09/25 07:47:57;;;;;;;10.10;6.00;;;;;;;;;;5056304;28;20127;-68
2022/09/25 07:50:25;;;;;;;11.20;5.85;;;;;;;;;;5080221;28;20039;-68
2022/09/25 07:52:53;;;;;;;9.90;5.88;;;;;;;;;;5093919;28;20040;-69
2022/09/25 08:11:08;;;;;;;9.55;6.55;;;;;;;;;;5069583;28;20384;-73
2022/09/25 08:13:37;;;;;;;10.73;7.88;;;;;;;;;;5068799;28;20076;-74
2022/09/25 08:16:05;;;;;;;10.13;4.85;;;;;;;;;;5070058;28;20041;-74
2022/09/25 08:18:33;;;;;;;6.32;4.53;;;;;;;;;;5069814;28;20511;-75
2022/09/25 08:21:04;;;;;;;5.97;4.28;;;;;;;;;;5074230;28;20576;-74
2022/09/25 08:23:32;;;;;;;7.28;4.68;;;;;;;;;;5068098;28;20041;-73
2022/09/25 08:26:00;;;;;;;11.02;4.53;;;;;;;;;;5069233;28;20099;-74
2022/09/25 08:28:28;;;;;;;8.63;4.40;;;;;;;;;;5069128;28;20063;-73
2022/09/25 08:30:58;;;;;;;9.52;5.63;;;;;;;;;;5069045;28;20095;-73
2022/09/25 08:33:26;;;;;;;9.02;5.07;;;;;;;;;;5069125;28;20033;-73
2022/09/25 08:35:57;;;;;;;6.07;4.00;;;;;;;;;;5066334;28;20124;-73
2022/09/25 08:38:25;;;;;;;8.70;4.47;;;;;;;;;;5068900;28;20041;-74
2022/09/25 08:40:58;;;;;;;4.45;3.60;;;;;;;;;;5068686;28;20457;-73
2022/09/25 08:43:26;;;;;;;6.28;3.40;;;;;;;;;;5068237;28;20665;-73
2022/09/25 08:49:00;;;;;;;5.68;3.70;;;;;;;;;;5068518;28;20098;-75
2022/09/25 08:51:29;;;;;;;29.48;5.43;;;;;;;;;;5067537;28;20051;-75
2022/09/25 08:53:58;;;;;;;7.03;3.72;;;;;;;;;;5069028;28;20077;-73
2022/09/25 08:56:27;;;;;;;5.78;4.43;;;;;;;;;;5068792;28;20436;-74
2022/09/25 08:59:00;;;;;;;5.25;3.83;;;;;;;;;;5069201;28;20064;-76
2022/09/25 09:01:40;;;;;;;4.40;3.40;;;;;;;;;;5068935;28;20045;-74
2022/09/25 09:04:14;;;;;;;4.18;2.85;;;;;;;;;;5069079;28;20068;-70
2022/09/25 09:06:42;;;;;;;4.07;2.80;;;;;;;;;;5068341;28;20050;-75
2022/09/25 09:09:18;;;;;;;3.65;2.88;;;;;;;;;;5070620;28;20560;-70
2022/09/25 09:11:56;;;;;;;4.32;3.10;;;;;;;;;;5082571;28;20123;-71
2022/09/25 09:14:25;;;;;;;3.72;2.70;;;;;;;;;;5088859;28;20203;-73
2022/09/25 09:16:59;;;;;;;4.20;2.65;;;;;;;;;;5090112;28;20071;-71
2022/09/25 09:19:27;;;;;;;3.70;2.65;;;;;;;;;;5088720;28;20036;-71
2022/09/25 09:22:01;;;;;;;3.08;2.78;;;;;;;;;;5078453;28;20498;-71
2022/09/25 09:24:29;;;;;;;;;;;;;;;;;;5075497;28;20119;-71
2022/09/25 09:27:14;;;;;;;4.45;2.80;;;;;;;;;;5075171;28;19967;-69
2022/09/25 09:30:17;;;;;;;6.22;2.53;;;;;;;;;;5074245;28;20044;-70
2022/09/25 09:32:45;;;;;;;6.55;2.80;;;;;;;;;;5052422;28;20498;-69
2022/09/25 09:35:12;;;;;;;3.85;3.08;;;;;;;;;;5071080;28;20114;-70
2022/09/25 09:38:00;;;;;;;3.33;2.65;;;;;;;;;;5074392;28;20079;-69
2022/09/25 09:40:39;;;;;;;10.77;6.60;;;;;;;;;;5070768;28;20071;-72
2022/09/25 09:43:30;;;;;;;4.05;2.88;;;;;;;;;;5075069;28;20142;-70
2022/09/25 09:46:04;;;;;;;4.90;3.13;;;;;;;;;;5073603;28;20037;-70
2022/09/25 09:48:45;;;;;;;4.22;3.40;;;;;;;;;;5075024;28;20086;-70
2022/09/25 09:51:19;;;;;;;7.50;4.32;;;;;;;;;;5074839;28;20045;-70
2022/09/25 09:53:51;;;;;;;2.53;2.33;;;;;;;;;;5074707;28;20051;-71
2022/09/25 09:56:26;;;;;;;4.03;3.00;;;;;;;;;;5073589;28;20052;-72
2022/09/25 09:58:54;;;;;;;;;;;;;;;;;;5073908;28;20098;-69
2022/09/25 10:01:23;;;;;;;5.57;3.95;;;;;;;;;;5074670;28;19920;-69
2022/09/25 10:04:15;;;;;;;6.35;5.50;;;;;;;;;;5074606;28;20042;-69
2022/09/25 10:07:04;;;;;;;5.43;3.53;;;;;;;;;;5074438;28;20044;-71
2022/09/25 10:09:32;;;;;;;3.72;2.97;;;;;;;;;;5074168;28;20056;-70
2022/09/25 10:12:06;;;;;;;3.67;2.80;;;;;;;;;;5059674;28;20493;-73
2022/09/25 10:14:38;;;;;;;7.25;6.20;;;;;;;;;;5054184;28;20045;-73
2022/09/25 10:17:06;;;;;;;9.75;7.63;;;;;;;;;;5054216;28;20037;-71
2022/09/25 10:19:41;;;;;;;8.50;7.30;;;;;;;;;;5054308;28;20394;-71
2022/09/25 10:22:15;;;;;;;5.72;3.50;;;;;;;;;;5052795;28;20040;-71
2022/09/25 10:24:52;;;;;;;9.55;5.55;;;;;;;;;;5054297;28;20052;-72
2022/09/25 10:27:30;;;;;;;573.47;469.90;;;;;;;;;;5048017;28;20124;-71
2022/09/25 10:30:13;;;;;;;22.45;15.95;;;;;;;;;;5041107;28;20052;-71
2022/09/25 10:33:06;;;;;;;16.30;12.13;;;;;;;;;;5031823;28;20449;-71
2022/09/25 10:35:37;;;;;;;3.08;2.75;;;;;;;;;;5039758;28;20061;-71
2022/09/25 10:38:06;;;;;;;8.00;3.63;;;;;;;;;;5041723;28;20398;-71
2022/09/25 10:40:34;;;;;;;4.82;3.60;;;;;;;;;;5053449;28;20080;-71
2022/09/25 10:43:05;;;;;;;4.88;3.10;;;;;;;;;;5053371;28;20045;-71
2022/09/25 10:45:34;;;;;;;5.53;2.90;;;;;;;;;;5039137;28;20049;-71
2022/09/25 10:51:05;;;;;;;3.70;2.30;;;;;;;;;;5053067;28;20052;-71
2022/09/25 10:53:32;;;;;;;3.92;2.47;;;;;;;;;;5053425;28;20044;-71
2022/09/25 10:56:11;;;;;;;53.83;47.30;;;;;;;;;;5053040;28;20079;-71
2022/09/25 10:58:43;;;;;;;117.28;102.47;;;;;;;;;;5053300;28;20065;-71
2022/09/25 11:01:15;;;;;;;22.48;18.77;;;;;;;;;;5051751;28;20048;-70
2022/09/25 11:03:45;;;;;;;34.83;29.13;;;;;;;;;;5049289;28;20037;-71
2022/09/25 11:06:19;;;;;;;5.95;4.22;;;;;;;;;;5043275;28;20045;-71
2022/09/25 11:08:59;;;;;;;7.90;3.75;;;;;;;;;;5032781;28;20124;-72
2022/09/25 11:11:27;;;;;;;9.65;5.45;;;;;;;;;;5032964;28;20053;-72
2022/09/25 11:13:57;;;;;;;14.50;6.22;;;;;;;;;;5033142;28;20064;-71
2022/09/25 11:16:44;;;;;;;7.03;5.50;;;;;;;;;;5033015;28;20594;-70
2022/09/25 11:19:19;;;;;;;4.40;2.58;;;;;;;;;;5031672;28;20045;-71
2022/09/25 11:22:13;;;;;;;6.43;3.25;;;;;;;;;;5032783;28;20045;-70
2022/09/25 11:24:41;;;;;;;4.68;2.70;;;;;;;;;;5032521;28;20045;-71
2022/09/25 11:27:30;;;;;;;5.70;2.33;;;;;;;;;;5032718;28;20053;-70
2022/09/25 11:30:11;;;;;;;3.97;2.47;;;;;;;;;;5032656;28;20041;-71
2022/09/25 11:32:44;;;;;;;4.25;2.88;;;;;;;;;;5032475;28;20038;-72
2022/09/25 11:35:24;;;;;;;5.80;2.70;;;;;;;;;;5032461;28;20558;-71
2022/09/25 11:37:55;;;;;;;2.92;2.10;;;;;;;;;;5042302;28;20490;-72
2022/09/25 11:43:24;;;;;;;6.07;4.55;;;;;;;;;;5052384;28;20048;-70
2022/09/25 11:46:01;;;;;;;3.15;2.25;;;;;;;;;;5052136;28;20441;-70
2022/09/25 11:48:47;;;;;;;2.22;1.98;;;;;;;;;;5052297;28;20095;-71
2022/09/25 11:51:27;;;;;;;4.10;2.80;;;;;;;;;;5040168;28;20045;-71
2022/09/25 11:54:15;;;;;;;3.40;2.72;;;;;;;;;;5052360;28;20033;-71
2022/09/25 11:57:10;;;;;;;3.73;2.57;;;;;;;;;;5052289;28;20171;-71
2022/09/25 11:59:37;;;;;;;4.82;2.47;;;;;;;;;;5039235;28;20293;-71
2022/09/25 12:02:08;;;;;;;5.07;3.30;;;;;;;;;;5052354;28;20086;-71
2022/09/25 12:04:44;;;;;;;4.35;2.88;;;;;;;;;;5052339;28;20041;-71
2022/09/25 12:07:12;;;;;;;3.65;2.53;;;;;;;;;;5052313;28;20045;-71
2022/09/25 12:09:42;;;;;;;3.25;2.60;;;;;;;;;;5051884;28;20096;-71
2022/09/25 12:12:20;;;;;;;8.60;3.13;;;;;;;;;;5052284;28;20100;-72
2022/09/25 12:14:50;;;;;;;4.28;2.80;;;;;;;;;;5052039;28;20482;-69
2022/09/25 12:17:41;;;;;;;3.25;2.78;;;;;;;;;;5050987;28;20029;-70
2022/09/25 12:20:28;;;;;;;7.20;2.58;;;;;;;;;;5029147;28;20108;-69
2022/09/25 12:23:16;;;;;;;3.28;2.45;;;;;;;;;;5032025;28;20429;-71
2022/09/25 12:26:07;;;;;;;3.15;2.55;;;;;;;;;;5029490;28;20120;-72
2022/09/25 12:28:52;;;;;;;3.08;2.25;;;;;;;;;;5032004;28;20386;-70
2022/09/25 12:31:28;;;;;;;3.70;2.53;;;;;;;;;;5031817;28;20542;-71
2022/09/25 12:34:05;;;;;;;3.67;2.50;;;;;;;;;;5030462;28;20278;-71
2022/09/25 12:36:44;;;;;;;3.25;2.40;;;;;;;;;;5031644;28;20053;-71
2022/09/25 12:39:24;;;;;;;3.72;3.08;;;;;;;;;;5038413;28;20041;-71
2022/09/25 12:42:06;;;;;;;4.60;3.35;;;;;;;;;;5051453;28;20087;-70
2022/09/25 12:44:43;;;;;;;4.80;3.22;;;;;;;;;;5051220;28;20041;-70
2022/09/25 12:47:25;;;;;;;8.52;4.55;;;;;;;;;;5051201;28;20069;-69
2022/09/25 12:50:22;;;;;;;3.55;2.22;;;;;;;;;;5051744;28;20060;-71
2022/09/25 12:52:56;;;;;;;7.03;3.38;;;;;;;;;;5047029;28;20061;-70
2022/09/25 12:55:30;;;;;;;2.90;2.42;;;;;;;;;;5038671;28;20062;-70
2022/09/25 12:58:17;;;;;;;4.32;2.60;;;;;;;;;;5054991;28;20052;-72
2022/09/25 13:00:46;;;;;;;3.53;2.42;;;;;;;;;;5053796;28;20041;-71
2022/09/25 13:03:21;;;;;;;2.55;2.35;;;;;;;;;;5055061;28;20036;-71
2022/09/25 13:06:03;;;;;;;3.20;2.60;;;;;;;;;;5055085;28;20482;-72
2022/09/25 13:08:37;;;;;;;5.50;3.60;;;;;;;;;;5054682;28;20418;-72
2022/09/25 13:11:11;;;;;;;6.93;3.83;;;;;;;;;;5054821;28;20060;-71
2022/09/25 13:13:49;;;;;;;4.22;3.20;;;;;;;;;;5054648;28;20051;-72
2022/09/25 13:16:17;;;;;;;5.15;2.97;;;;;;;;;;5053223;28;20048;-72
2022/09/25 13:18:48;;;;;;;7.10;4.00;;;;;;;;;;5047448;28;20052;-73
2022/09/25 13:21:29;;;;;;;5.07;3.17;;;;;;;;;;5049058;28;20045;-71
2022/09/25 13:23:58;;;;;;;4.07;2.65;;;;;;;;;;5040553;28;20453;-72
2022/09/25 13:26:26;;;;;;;4.55;2.50;;;;;;;;;;5044900;28;20099;-73
2022/09/25 13:28:58;;;;;;;4.47;2.90;;;;;;;;;;5038540;28;20044;-74
2022/09/25 13:31:30;;;;;;;7.30;5.28;;;;;;;;;;5054146;28;20047;-74
2022/09/25 13:34:01;;;;;;;4.82;3.50;;;;;;;;;;5047475;28;20041;-74
2022/09/25 13:36:37;;;;;;;3.60;2.70;;;;;;;;;;5050570;28;20482;-75
2022/09/25 13:42:02;;;;;;;13.77;7.07;;;;;;;;;;5052610;28;20037;-73
2022/09/25 13:44:42;;;;;;;14.30;8.23;;;;;;;;;;5034750;28;20037;-72
2022/09/25 13:47:22;;;;;;;9.95;5.00;;;;;;;;;;5033194;28;20037;-73
2022/09/25 13:49:51;;;;;;;5.70;4.15;;;;;;;;;;5033759;28;20490;-72
2022/09/25 13:52:31;;;;;;;3.88;2.75;;;;;;;;;;5032468;28;20076;-72
2022/09/25 13:55:18;;;;;;;6.22;3.97;;;;;;;;;;5036739;28;20039;-72
2022/09/25 13:58:06;;;;;;;6.60;3.78;;;;;;;;;;5054279;28;20084;-72
2022/09/25 14:00:36;;;;;;;6.60;3.08;;;;;;;;;;5047235;28;20395;-72
2022/09/25 14:03:03;;;;;;;6.68;3.35;;;;;;;;;;5047913;28;20048;-72
2022/09/25 14:05:35;;;;;;;3.20;2.72;;;;;;;;;;5054348;28;20399;-69
2022/09/25 14:08:12;;;;;;;2.45;2.13;;;;;;;;;;5054336;28;20044;-70
2022/09/25 14:10:44;;;;;;;5.72;2.80;;;;;;;;;;5053965;28;20088;-70
2022/09/25 14:13:12;;;;;;;5.60;3.55;;;;;;;;;;5054047;28;20037;-70
2022/09/25 14:15:41;;;;;;;6.93;4.18;;;;;;;;;;5054046;28;20064;-70
2022/09/25 14:18:16;;;;;;;4.30;2.25;;;;;;;;;;5054055;28;20041;-71
2022/09/25 14:20:45;;;;;;;4.28;3.05;;;;;;;;;;5053801;28;20112;-70
2022/09/25 14:23:15;;;;;;;4.28;3.10;;;;;;;;;;5053929;28;20151;-70
2022/09/25 14:25:45;;;;;;;3.65;2.42;;;;;;;;;;5053644;28;20037;-69
2022/09/25 14:28:15;;;;;;;4.28;2.25;;;;;;;;;;5043220;28;20486;-70
2022/09/25 14:30:52;;;;;;;2.60;2.28;;;;;;;;;;5050734;28;20039;-70
2022/09/25 14:33:41;;;;;;;4.97;3.38;;;;;;;;;;5053977;28;20472;-70
2022/09/25 14:36:35;;;;;;;3.15;2.20;;;;;;;;;;5043240;28;20055;-69
2022/09/25 14:39:13;;;;;;;6.40;2.88;;;;;;;;;;5052913;28;20119;-71
2022/09/25 14:41:59;;;;;;;3.03;2.67;;;;;;;;;;5046900;28;20144;-71
2022/09/25 14:44:29;;;;;;;6.97;2.90;;;;;;;;;;5035626;28;20044;-71
2022/09/25 14:46:57;;;;;;;4.53;2.70;;;;;;;;;;5052792;28;20116;-71
2022/09/25 14:49:29;;;;;;;3.85;2.45;;;;;;;;;;5053357;28;20123;-71
2022/09/25 14:52:00;;;;;;;6.13;3.22;;;;;;;;;;5053127;28;20049;-71
2022/09/25 14:54:31;;;;;;;5.88;3.00;;;;;;;;;;5053205;28;20040;-71
2022/09/25 14:56:59;;;;;;;6.35;3.47;;;;;;;;;;5053085;28;20049;-72
2022/09/25 14:59:27;;;;;;;6.60;4.85;;;;;;;;;;5053068;28;20546;-71
2022/09/25 15:01:54;;;;;;;6.82;3.80;;;;;;;;;;5051666;28;20482;-72
2022/09/25 15:04:32;;;;;;;5.47;4.10;;;;;;;;;;5053085;28;20120;-72
2022/09/25 15:07:02;;;;;;;4.00;3.10;;;;;;;;;;5052925;28;20068;-72
2022/09/25 15:09:29;;;;;;;5.43;2.97;;;;;;;;;;5052639;28;20546;-73
2022/09/25 15:11:56;;;;;;;3.67;2.80;;;;;;;;;;5052657;28;20449;-72
2022/09/25 15:14:24;;;;;;;5.55;3.95;;;;;;;;;;5051472;28;20041;-73
2022/09/25 15:19:41;;;;;;;7.03;3.85;;;;;;;;;;5040013;28;20068;-72
2022/09/25 15:22:09;;;;;;;9.98;4.28;;;;;;;;;;5037044;28;20049;-73
2022/09/25 15:24:37;;;;;;;4.15;2.97;;;;;;;;;;5043259;28;20120;-73
2022/09/25 15:27:05;;;;;;;12.05;3.70;;;;;;;;;;5030912;28;20057;-73
2022/09/25 15:29:35;;;;;;;7.25;4.13;;;;;;;;;;5031996;28;20029;-72
2022/09/25 15:32:04;;;;;;;6.90;4.18;;;;;;;;;;5032717;28;20095;-73
2022/09/25 15:34:32;;;;;;;8.55;4.35;;;;;;;;;;5032177;28;20129;-73
2022/09/25 15:37:26;;;;;;;8.93;4.88;;;;;;;;;;5034774;28;20099;-73
2022/09/25 15:39:54;;;;;;;9.20;6.90;;;;;;;;;;5052396;28;20429;-74
2022/09/25 15:42:22;;;;;;;7.32;3.80;;;;;;;;;;5038576;28;20100;-74